HOY weather

CLOSED Hoy/Longhope Airfield
Orkney Isle, Scotland, United Kingdom

Public forecast

Using degrees Celsius for public forecast. Weather courtesy of forecast.io.

Closest aviation weather report (METAR) to Hoy/Longhope Airfield

Closest report is Kirkwall Airport, 13.9 nm (25.7 km) NE. Retrieved 2019/10/19 11:20 UTC (31 minutes ago):

EGPA 191120Z 03015KT 9999 VCSH FEW008 SCT017 11/08 Q1003

Closest aviation forecast (TAF) to Hoy/Longhope Airfield

Closest forecast is RAF Lossiemouth, 65.4 nm (121.0 km) S. Retrieved 2019/10/19 09:49 UTC (2 hours ago):

TAF EGQS 190741Z 1909/2003 01015KT 9999 FEW022 BKN040 TEMPO 1909/2003 SCT022 PROB30 TEMPO 1911/1916 7000 SHRA TEMPO 1916/1920 7000 SHRA PROB30 TEMPO 1916/1920 SCT014 BECMG 1918/1922 36015G25KT PROB30 TEMPO 1920/2003 7000 SHRA